sensor_id;sensor_type;location;lat;lon;timestamp;temperature;humidity
20366;DHT22;10341;49.894;8.822;2024-02-21T00:00:08;8.90;99.90
20366;DHT22;10341;49.894;8.822;2024-02-21T00:05:28;8.90;99.90
20366;DHT22;10341;49.894;8.822;2024-02-21T00:10:48;8.90;99.90
20366;DHT22;10341;49.894;8.822;2024-02-21T00:16:08;8.90;99.90
20366;DHT22;10341;49.894;8.822;2024-02-21T00:21:27;8.90;99.90
20366;DHT22;10341;49.894;8.822;2024-02-21T00:26:46;8.90;99.90
20366;DHT22;10341;49.894;8.822;2024-02-21T00:32:06;8.90;99.90
20366;DHT22;10341;49.894;8.822;2024-02-21T00:37:25;8.80;99.90
20366;DHT22;10341;49.894;8.822;2024-02-21T00:42:44;8.80;99.90
20366;DHT22;10341;49.894;8.822;2024-02-21T00:48:04;8.80;99.90
20366;DHT22;10341;49.894;8.822;2024-02-21T00:53:23;8.70;99.90
20366;DHT22;10341;49.894;8.822;2024-02-21T00:58:42;8.60;99.90
20366;DHT22;10341;49.894;8.822;2024-02-21T01:04:03;8.60;99.90
20366;DHT22;10341;49.894;8.822;2024-02-21T01:09:22;8.60;99.90
20366;DHT22;10341;49.894;8.822;2024-02-21T01:14:41;8.50;99.90
20366;DHT22;10341;49.894;8.822;2024-02-21T01:20:02;8.50;99.90
20366;DHT22;10341;49.894;8.822;2024-02-21T01:25:21;8.50;99.90
20366;DHT22;10341;49.894;8.822;2024-02-21T01:30:40;8.40;99.90
20366;DHT22;10341;49.894;8.822;2024-02-21T01:36:03;8.40;99.90
20366;DHT22;10341;49.894;8.822;2024-02-21T01:41:23;8.40;99.90
20366;DHT22;10341;49.894;8.822;2024-02-21T01:46:43;8.30;99.90
20366;DHT22;10341;49.894;8.822;2024-02-21T01:52:03;8.30;99.90
20366;DHT22;10341;49.894;8.822;2024-02-21T01:57:23;8.40;99.90
20366;DHT22;10341;49.894;8.822;2024-02-21T02:02:42;8.40;99.90
20366;DHT22;10341;49.894;8.822;2024-02-21T02:08:02;8.40;99.90
20366;DHT22;10341;49.894;8.822;2024-02-21T02:13:21;8.40;99.90
20366;DHT22;10341;49.894;8.822;2024-02-21T02:18:40;8.40;99.90
20366;DHT22;10341;49.894;8.822;2024-02-21T02:24:00;8.40;99.90
20366;DHT22;10341;49.894;8.822;2024-02-21T02:29:20;8.30;99.90
20366;DHT22;10341;49.894;8.822;2024-02-21T02:34:39;8.30;99.90
20366;DHT22;10341;49.894;8.822;2024-02-21T02:39:58;8.30;99.90
20366;DHT22;10341;49.894;8.822;2024-02-21T02:45:18;8.30;99.90
20366;DHT22;10341;49.894;8.822;2024-02-21T02:50:37;8.20;99.90
20366;DHT22;10341;49.894;8.822;2024-02-21T02:55:57;8.10;99.90
20366;DHT22;10341;49.894;8.822;2024-02-21T03:01:16;8.00;99.90
20366;DHT22;10341;49.894;8.822;2024-02-21T03:06:36;8.00;99.90
20366;DHT22;10341;49.894;8.822;2024-02-21T03:11:56;8.00;99.90
20366;DHT22;10341;49.894;8.822;2024-02-21T03:17:22;7.90;99.90
20366;DHT22;10341;49.894;8.822;2024-02-21T03:22:41;7.90;99.90
20366;DHT22;10341;49.894;8.822;2024-02-21T03:28:00;7.80;99.90
20366;DHT22;10341;49.894;8.822;2024-02-21T03:33:20;7.80;99.90
20366;DHT22;10341;49.894;8.822;2024-02-21T03:38:41;7.70;99.90
20366;DHT22;10341;49.894;8.822;2024-02-21T03:44:01;7.50;99.90
20366;DHT22;10341;49.894;8.822;2024-02-21T03:49:20;7.40;99.90
20366;DHT22;10341;49.894;8.822;2024-02-21T03:54:40;7.30;99.90
20366;DHT22;10341;49.894;8.822;2024-02-21T03:59:59;7.10;99.90
20366;DHT22;10341;49.894;8.822;2024-02-21T04:05:18;7.10;99.90
20366;DHT22;10341;49.894;8.822;2024-02-21T04:10:38;7.10;99.90
20366;DHT22;10341;49.894;8.822;2024-02-21T04:15:57;7.10;99.90
20366;DHT22;10341;49.894;8.822;2024-02-21T04:21:17;7.10;99.90
20366;DHT22;10341;49.894;8.822;2024-02-21T04:26:36;7.20;99.90
20366;DHT22;10341;49.894;8.822;2024-02-21T04:31:55;7.30;99.90
20366;DHT22;10341;49.894;8.822;2024-02-21T04:37:15;7.30;99.90
20366;DHT22;10341;49.894;8.822;2024-02-21T04:42:34;7.20;99.90
20366;DHT22;10341;49.894;8.822;2024-02-21T04:47:54;7.20;99.90
20366;DHT22;10341;49.894;8.822;2024-02-21T04:53:14;7.20;99.90
20366;DHT22;10341;49.894;8.822;2024-02-21T04:58:33;7.10;99.90
20366;DHT22;10341;49.894;8.822;2024-02-21T05:03:56;7.00;99.90
20366;DHT22;10341;49.894;8.822;2024-02-21T05:09:16;7.10;99.90
20366;DHT22;10341;49.894;8.822;2024-02-21T05:14:35;7.10;99.90
20366;DHT22;10341;49.894;8.822;2024-02-21T05:19:54;7.10;99.90
20366;DHT22;10341;49.894;8.822;2024-02-21T05:25:13;7.00;99.90
20366;DHT22;10341;49.894;8.822;2024-02-21T05:30:33;7.00;99.90
20366;DHT22;10341;49.894;8.822;2024-02-21T05:35:52;7.10;99.90
20366;DHT22;10341;49.894;8.822;2024-02-21T05:41:11;7.10;99.90
20366;DHT22;10341;49.894;8.822;2024-02-21T05:46:31;7.00;99.90
20366;DHT22;10341;49.894;8.822;2024-02-21T05:51:50;7.20;99.90
20366;DHT22;10341;49.894;8.822;2024-02-21T05:57:09;7.30;99.90
20366;DHT22;10341;49.894;8.822;2024-02-21T06:02:29;7.40;99.90
20366;DHT22;10341;49.894;8.822;2024-02-21T06:07:48;7.60;99.90
20366;DHT22;10341;49.894;8.822;2024-02-21T06:13:07;7.60;99.90
20366;DHT22;10341;49.894;8.822;2024-02-21T06:18:28;7.60;99.90
20366;DHT22;10341;49.894;8.822;2024-02-21T06:23:47;7.50;99.90
20366;DHT22;10341;49.894;8.822;2024-02-21T06:29:07;7.50;99.90
20366;DHT22;10341;49.894;8.822;2024-02-21T06:34:26;7.40;99.90
20366;DHT22;10341;49.894;8.822;2024-02-21T06:39:46;7.40;99.90
20366;DHT22;10341;49.894;8.822;2024-02-21T06:45:05;7.40;99.90
20366;DHT22;10341;49.894;8.822;2024-02-21T06:50:25;7.40;99.90
20366;DHT22;10341;49.894;8.822;2024-02-21T06:55:45;7.40;99.90
20366;DHT22;10341;49.894;8.822;2024-02-21T07:01:04;7.40;99.90
20366;DHT22;10341;49.894;8.822;2024-02-21T07:06:24;7.50;99.90
20366;DHT22;10341;49.894;8.822;2024-02-21T07:11:44;7.60;99.90
20366;DHT22;10341;49.894;8.822;2024-02-21T07:17:03;7.70;99.90
20366;DHT22;10341;49.894;8.822;2024-02-21T07:22:22;8.00;99.90
20366;DHT22;10341;49.894;8.822;2024-02-21T07:27:44;8.40;99.90
20366;DHT22;10341;49.894;8.822;2024-02-21T07:33:04;8.70;99.90
20366;DHT22;10341;49.894;8.822;2024-02-21T07:38:23;9.10;99.90
20366;DHT22;10341;49.894;8.822;2024-02-21T07:43:42;9.60;99.90
20366;DHT22;10341;49.894;8.822;2024-02-21T07:49:02;9.70;99.90
20366;DHT22;10341;49.894;8.822;2024-02-21T07:54:21;10.10;99.90
20366;DHT22;10341;49.894;8.822;2024-02-21T07:59:40;10.10;99.90
20366;DHT22;10341;49.894;8.822;2024-02-21T08:05:01;10.40;99.90
20366;DHT22;10341;49.894;8.822;2024-02-21T08:10:20;10.70;99.90
20366;DHT22;10341;49.894;8.822;2024-02-21T08:15:40;11.30;99.90
20366;DHT22;10341;49.894;8.822;2024-02-21T08:21:00;11.00;99.90
20366;DHT22;10341;49.894;8.822;2024-02-21T08:26:20;10.80;99.90
20366;DHT22;10341;49.894;8.822;2024-02-21T08:31:40;10.50;99.90
20366;DHT22;10341;49.894;8.822;2024-02-21T08:37:00;10.60;99.90
20366;DHT22;10341;49.894;8.822;2024-02-21T08:42:19;10.30;99.90
20366;DHT22;10341;49.894;8.822;2024-02-21T08:47:39;10.40;99.90
20366;DHT22;10341;49.894;8.822;2024-02-21T08:52:59;10.60;99.90
20366;DHT22;10341;49.894;8.822;2024-02-21T08:58:19;10.70;99.90
20366;DHT22;10341;49.894;8.822;2024-02-21T09:03:39;10.70;99.90
20366;DHT22;10341;49.894;8.822;2024-02-21T09:08:59;10.90;99.90
20366;DHT22;10341;49.894;8.822;2024-02-21T09:14:18;11.70;99.90
20366;DHT22;10341;49.894;8.822;2024-02-21T09:19:37;11.90;99.90
20366;DHT22;10341;49.894;8.822;2024-02-21T09:24:56;12.20;99.90
20366;DHT22;10341;49.894;8.822;2024-02-21T09:30:16;13.20;99.90
20366;DHT22;10341;49.894;8.822;2024-02-21T09:35:35;13.60;99.90
20366;DHT22;10341;49.894;8.822;2024-02-21T09:40:59;13.20;99.90
20366;DHT22;10341;49.894;8.822;2024-02-21T09:46:29;12.20;99.90
20366;DHT22;10341;49.894;8.822;2024-02-21T09:51:55;11.60;99.90
20366;DHT22;10341;49.894;8.822;2024-02-21T09:57:16;11.60;99.90
20366;DHT22;10341;49.894;8.822;2024-02-21T10:02:36;12.00;99.90
20366;DHT22;10341;49.894;8.822;2024-02-21T10:07:55;13.70;99.90
20366;DHT22;10341;49.894;8.822;2024-02-21T10:13:29;13.80;99.90
20366;DHT22;10341;49.894;8.822;2024-02-21T10:18:54;13.40;99.90
20366;DHT22;10341;49.894;8.822;2024-02-21T10:24:13;13.40;99.90
20366;DHT22;10341;49.894;8.822;2024-02-21T10:29:33;13.70;99.90
20366;DHT22;10341;49.894;8.822;2024-02-21T10:35:01;13.50;99.90
20366;DHT22;10341;49.894;8.822;2024-02-21T10:40:27;13.30;99.90
20366;DHT22;10341;49.894;8.822;2024-02-21T10:45:49;14.00;99.90
20366;DHT22;10341;49.894;8.822;2024-02-21T10:51:16;13.30;99.90
20366;DHT22;10341;49.894;8.822;2024-02-21T10:56:38;14.20;99.90
20366;DHT22;10341;49.894;8.822;2024-02-21T11:01:59;14.80;99.90
20366;DHT22;10341;49.894;8.822;2024-02-21T11:07:19;14.90;99.90
20366;DHT22;10341;49.894;8.822;2024-02-21T11:12:39;15.00;99.90
20366;DHT22;10341;49.894;8.822;2024-02-21T11:17:59;15.20;99.90
20366;DHT22;10341;49.894;8.822;2024-02-21T11:23:26;14.50;99.90
20366;DHT22;10341;49.894;8.822;2024-02-21T11:28:59;15.00;99.90
20366;DHT22;10341;49.894;8.822;2024-02-21T11:34:19;15.10;99.90
20366;DHT22;10341;49.894;8.822;2024-02-21T11:39:38;14.70;99.90
20366;DHT22;10341;49.894;8.822;2024-02-21T11:45:00;14.40;99.90
20366;DHT22;10341;49.894;8.822;2024-02-21T11:50:20;14.10;99.90
20366;DHT22;10341;49.894;8.822;2024-02-21T11:55:39;13.40;99.90
20366;DHT22;10341;49.894;8.822;2024-02-21T12:00:58;13.10;99.90
20366;DHT22;10341;49.894;8.822;2024-02-21T12:06:18;13.00;99.90
20366;DHT22;10341;49.894;8.822;2024-02-21T12:11:40;12.60;99.90
20366;DHT22;10341;49.894;8.822;2024-02-21T12:17:00;12.40;99.90
20366;DHT22;10341;49.894;8.822;2024-02-21T12:22:20;12.10;99.90
20366;DHT22;10341;49.894;8.822;2024-02-21T12:27:39;12.20;99.90
20366;DHT22;10341;49.894;8.822;2024-02-21T12:32:58;12.20;99.90
20366;DHT22;10341;49.894;8.822;2024-02-21T12:38:18;12.50;99.90
20366;DHT22;10341;49.894;8.822;2024-02-21T12:43:39;12.70;99.90
20366;DHT22;10341;49.894;8.822;2024-02-21T12:48:59;13.50;99.90
20366;DHT22;10341;49.894;8.822;2024-02-21T12:54:19;13.80;99.90
20366;DHT22;10341;49.894;8.822;2024-02-21T12:59:38;14.00;99.90
20366;DHT22;10341;49.894;8.822;2024-02-21T13:04:58;13.70;99.90
20366;DHT22;10341;49.894;8.822;2024-02-21T13:10:19;13.10;99.90
20366;DHT22;10341;49.894;8.822;2024-02-21T13:15:38;12.90;99.90
20366;DHT22;10341;49.894;8.822;2024-02-21T13:21:01;12.90;99.90
20366;DHT22;10341;49.894;8.822;2024-02-21T13:26:21;12.70;99.90
20366;DHT22;10341;49.894;8.822;2024-02-21T13:31:41;12.30;99.90
20366;DHT22;10341;49.894;8.822;2024-02-21T13:37:01;12.30;99.90
20366;DHT22;10341;49.894;8.822;2024-02-21T13:42:20;12.30;99.90
20366;DHT22;10341;49.894;8.822;2024-02-21T13:47:40;12.00;99.90
20366;DHT22;10341;49.894;8.822;2024-02-21T13:52:59;11.90;99.90
20366;DHT22;10341;49.894;8.822;2024-02-21T13:58:18;12.00;99.90
20366;DHT22;10341;49.894;8.822;2024-02-21T14:03:38;11.90;99.90
20366;DHT22;10341;49.894;8.822;2024-02-21T14:08:57;12.00;99.90
20366;DHT22;10341;49.894;8.822;2024-02-21T14:14:17;11.90;99.90
20366;DHT22;10341;49.894;8.822;2024-02-21T14:19:36;12.00;99.90
20366;DHT22;10341;49.894;8.822;2024-02-21T14:24:55;12.10;99.90
20366;DHT22;10341;49.894;8.822;2024-02-21T14:30:15;11.90;99.90
20366;DHT22;10341;49.894;8.822;2024-02-21T14:35:35;11.70;99.90
20366;DHT22;10341;49.894;8.822;2024-02-21T14:40:54;11.70;99.90
20366;DHT22;10341;49.894;8.822;2024-02-21T14:46:14;11.80;99.90
20366;DHT22;10341;49.894;8.822;2024-02-21T14:51:32;11.70;99.90
20366;DHT22;10341;49.894;8.822;2024-02-21T14:56:53;11.80;99.90
20366;DHT22;10341;49.894;8.822;2024-02-21T15:02:13;11.80;99.90
20366;DHT22;10341;49.894;8.822;2024-02-21T15:07:33;11.70;99.90
20366;DHT22;10341;49.894;8.822;2024-02-21T15:12:52;11.70;99.90
20366;DHT22;10341;49.894;8.822;2024-02-21T15:18:11;11.60;99.90
20366;DHT22;10341;49.894;8.822;2024-02-21T15:23:30;11.60;99.90
20366;DHT22;10341;49.894;8.822;2024-02-21T15:28:49;11.60;99.90
20366;DHT22;10341;49.894;8.822;2024-02-21T15:34:10;11.50;99.90
20366;DHT22;10341;49.894;8.822;2024-02-21T15:39:29;11.40;99.90
20366;DHT22;10341;49.894;8.822;2024-02-21T15:44:49;11.30;99.90
20366;DHT22;10341;49.894;8.822;2024-02-21T15:50:08;11.10;99.90
20366;DHT22;10341;49.894;8.822;2024-02-21T15:55:29;11.10;99.90
20366;DHT22;10341;49.894;8.822;2024-02-21T16:00:51;11.00;99.90
20366;DHT22;10341;49.894;8.822;2024-02-21T16:06:12;10.90;99.90
20366;DHT22;10341;49.894;8.822;2024-02-21T16:11:32;10.80;99.90
20366;DHT22;10341;49.894;8.822;2024-02-21T16:16:51;10.70;99.90
20366;DHT22;10341;49.894;8.822;2024-02-21T16:22:10;10.60;99.90
20366;DHT22;10341;49.894;8.822;2024-02-21T16:27:30;10.60;99.90
20366;DHT22;10341;49.894;8.822;2024-02-21T16:32:49;10.60;99.90
20366;DHT22;10341;49.894;8.822;2024-02-21T16:38:11;10.50;99.90
20366;DHT22;10341;49.894;8.822;2024-02-21T16:43:30;10.50;99.90
20366;DHT22;10341;49.894;8.822;2024-02-21T16:48:50;10.40;99.90
20366;DHT22;10341;49.894;8.822;2024-02-21T16:54:10;10.40;99.90
20366;DHT22;10341;49.894;8.822;2024-02-21T16:59:29;10.40;99.90
20366;DHT22;10341;49.894;8.822;2024-02-21T17:04:49;10.30;99.90
20366;DHT22;10341;49.894;8.822;2024-02-21T17:10:08;10.30;99.90
20366;DHT22;10341;49.894;8.822;2024-02-21T17:15:28;10.20;99.90
20366;DHT22;10341;49.894;8.822;2024-02-21T17:20:47;10.20;99.90
20366;DHT22;10341;49.894;8.822;2024-02-21T17:26:08;10.20;99.90
20366;DHT22;10341;49.894;8.822;2024-02-21T17:31:27;10.30;99.90
20366;DHT22;10341;49.894;8.822;2024-02-21T17:36:46;10.30;99.90
20366;DHT22;10341;49.894;8.822;2024-02-21T17:42:07;10.30;99.90
20366;DHT22;10341;49.894;8.822;2024-02-21T17:47:26;10.30;99.90
20366;DHT22;10341;49.894;8.822;2024-02-21T17:52:46;10.40;99.90
20366;DHT22;10341;49.894;8.822;2024-02-21T17:58:05;10.40;99.90
20366;DHT22;10341;49.894;8.822;2024-02-21T18:03:26;10.40;99.90
20366;DHT22;10341;49.894;8.822;2024-02-21T18:08:48;10.30;99.90
20366;DHT22;10341;49.894;8.822;2024-02-21T18:14:07;10.30;99.90
20366;DHT22;10341;49.894;8.822;2024-02-21T18:19:27;10.30;99.90
20366;DHT22;10341;49.894;8.822;2024-02-21T18:24:47;10.30;99.90
20366;DHT22;10341;49.894;8.822;2024-02-21T18:30:07;10.20;99.90
20366;DHT22;10341;49.894;8.822;2024-02-21T18:35:26;10.20;99.90
20366;DHT22;10341;49.894;8.822;2024-02-21T18:40:46;10.20;99.90
20366;DHT22;10341;49.894;8.822;2024-02-21T18:46:05;10.20;99.90
20366;DHT22;10341;49.894;8.822;2024-02-21T18:51:24;10.10;99.90
20366;DHT22;10341;49.894;8.822;2024-02-21T18:56:45;10.10;99.90
20366;DHT22;10341;49.894;8.822;2024-02-21T19:02:04;10.20;99.90
20366;DHT22;10341;49.894;8.822;2024-02-21T19:07:24;10.30;99.90
20366;DHT22;10341;49.894;8.822;2024-02-21T19:12:43;10.60;99.90
20366;DHT22;10341;49.894;8.822;2024-02-21T19:18:03;10.80;99.90
20366;DHT22;10341;49.894;8.822;2024-02-21T19:23:23;10.80;99.90
20366;DHT22;10341;49.894;8.822;2024-02-21T19:28:42;10.90;99.90
20366;DHT22;10341;49.894;8.822;2024-02-21T19:34:03;11.00;99.90
20366;DHT22;10341;49.894;8.822;2024-02-21T19:39:23;11.00;99.90
20366;DHT22;10341;49.894;8.822;2024-02-21T19:44:45;11.00;99.90
20366;DHT22;10341;49.894;8.822;2024-02-21T19:50:06;11.00;99.90
20366;DHT22;10341;49.894;8.822;2024-02-21T19:55:25;11.00;99.90
20366;DHT22;10341;49.894;8.822;2024-02-21T20:00:46;11.10;99.90
20366;DHT22;10341;49.894;8.822;2024-02-21T20:06:05;11.10;99.90
20366;DHT22;10341;49.894;8.822;2024-02-21T20:11:25;11.10;99.90
20366;DHT22;10341;49.894;8.822;2024-02-21T20:16:48;11.00;99.90
20366;DHT22;10341;49.894;8.822;2024-02-21T20:22:08;10.90;99.90
20366;DHT22;10341;49.894;8.822;2024-02-21T20:27:28;10.80;99.90
20366;DHT22;10341;49.894;8.822;2024-02-21T20:32:47;10.70;99.90
20366;DHT22;10341;49.894;8.822;2024-02-21T20:38:11;10.30;99.90
20366;DHT22;10341;49.894;8.822;2024-02-21T20:43:30;10.00;99.90
20366;DHT22;10341;49.894;8.822;2024-02-21T20:48:50;9.80;99.90
20366;DHT22;10341;49.894;8.822;2024-02-21T20:54:09;9.60;99.90
20366;DHT22;10341;49.894;8.822;2024-02-21T20:59:29;9.40;99.90
20366;DHT22;10341;49.894;8.822;2024-02-21T21:04:49;9.30;99.90
20366;DHT22;10341;49.894;8.822;2024-02-21T21:10:08;9.10;99.90
20366;DHT22;10341;49.894;8.822;2024-02-21T21:15:28;9.00;99.90
20366;DHT22;10341;49.894;8.822;2024-02-21T21:20:48;8.90;99.90
20366;DHT22;10341;49.894;8.822;2024-02-21T21:26:08;8.80;99.90
20366;DHT22;10341;49.894;8.822;2024-02-21T21:31:27;8.70;99.90
20366;DHT22;10341;49.894;8.822;2024-02-21T21:36:48;8.70;99.90
20366;DHT22;10341;49.894;8.822;2024-02-21T21:42:08;8.60;99.90
20366;DHT22;10341;49.894;8.822;2024-02-21T21:47:27;8.60;99.90
20366;DHT22;10341;49.894;8.822;2024-02-21T21:52:46;8.70;99.90
20366;DHT22;10341;49.894;8.822;2024-02-21T21:58:06;8.70;99.90
20366;DHT22;10341;49.894;8.822;2024-02-21T22:03:26;8.70;99.90
20366;DHT22;10341;49.894;8.822;2024-02-21T22:08:47;8.60;99.90
20366;DHT22;10341;49.894;8.822;2024-02-21T22:14:07;8.60;99.90
20366;DHT22;10341;49.894;8.822;2024-02-21T22:19:27;8.50;99.90
20366;DHT22;10341;49.894;8.822;2024-02-21T22:24:46;8.60;99.90
20366;DHT22;10341;49.894;8.822;2024-02-21T22:30:06;8.50;99.90
20366;DHT22;10341;49.894;8.822;2024-02-21T22:35:28;8.60;99.90
20366;DHT22;10341;49.894;8.822;2024-02-21T22:40:47;8.50;99.90
20366;DHT22;10341;49.894;8.822;2024-02-21T22:46:06;8.50;99.90
20366;DHT22;10341;49.894;8.822;2024-02-21T22:51:25;8.50;99.90
20366;DHT22;10341;49.894;8.822;2024-02-21T22:56:44;8.50;99.90
20366;DHT22;10341;49.894;8.822;2024-02-21T23:02:03;8.50;99.90
20366;DHT22;10341;49.894;8.822;2024-02-21T23:07:23;8.50;99.90
20366;DHT22;10341;49.894;8.822;2024-02-21T23:12:43;8.40;99.90
20366;DHT22;10341;49.894;8.822;2024-02-21T23:18:03;8.50;99.90
20366;DHT22;10341;49.894;8.822;2024-02-21T23:23:23;8.50;99.90
20366;DHT22;10341;49.894;8.822;2024-02-21T23:28:42;8.50;99.90
20366;DHT22;10341;49.894;8.822;2024-02-21T23:34:03;8.50;99.90
20366;DHT22;10341;49.894;8.822;2024-02-21T23:39:22;8.50;99.90
20366;DHT22;10341;49.894;8.822;2024-02-21T23:44:42;8.50;99.90
20366;DHT22;10341;49.894;8.822;2024-02-21T23:50:03;8.60;99.90
20366;DHT22;10341;49.894;8.822;2024-02-21T23:55:22;8.60;99.90
